Time;durP1;ratioP1;P1;durP2;ratioP2;P2;SDS_P1;SDS_P2;PMS_P1;PMS_P2;Temp;Humidity;BMP_temperature;BMP_pressure;BME280_temperature;BME280_humidity;BME280_pressure;Samples;Min_cycle;Max_cycle;Signal;HPM_P1;HPM_P2
2020/12/10 00:02:27;;;;;;;0.20;0.20;;;;;;;2.40;97.67;99627.75;5014755;28;20445;-51
2020/12/10 00:04:53;;;;;;;0.20;0.10;;;;;;;2.47;97.51;99619.84;5014574;28;20480;-51
2020/12/10 00:07:23;;;;;;;0.20;0.13;;;;;;;2.34;98.20;99626.03;5015164;28;20452;-51
2020/12/10 00:09:53;;;;;;;0.20;0.10;;;;;;;2.30;97.30;99624.28;5001610;28;20818;-51
2020/12/10 00:12:20;;;;;;;0.20;0.10;;;;;;;2.31;97.50;99624.28;5014934;28;20488;-51
2020/12/10 00:14:48;;;;;;;0.20;0.10;;;;;;;2.27;97.98;99616.44;5014503;28;20469;-51
2020/12/10 00:17:14;;;;;;;0.20;0.10;;;;;;;2.27;98.86;99606.84;5014973;28;20448;-51
2020/12/10 00:19:40;;;;;;;0.20;0.10;;;;;;;2.29;98.99;99612.06;5014882;28;20448;-51
2020/12/10 00:22:09;;;;;;;0.20;0.10;;;;;;;2.30;98.48;99608.56;5014915;28;20440;-50
2020/12/10 00:24:35;;;;;;;0.20;0.10;;;;;;;2.44;98.62;99606.72;5014158;28;20499;-51
2020/12/10 00:27:01;;;;;;;0.20;0.10;;;;;;;2.40;98.81;99604.13;5014616;28;20448;-51
2020/12/10 00:29:27;;;;;;;0.20;0.10;;;;;;;2.36;98.97;99596.28;5014378;28;20479;-51
2020/12/10 00:31:54;;;;;;;0.20;0.10;;;;;;;2.32;99.10;99589.31;5001944;28;20876;-51
2020/12/10 00:34:21;;;;;;;0.20;0.10;;;;;;;2.37;99.57;99586.69;5012079;28;20488;-50
2020/12/10 00:36:47;;;;;;;0.30;0.30;;;;;;;2.49;98.71;99581.34;5008797;28;20472;-51
2020/12/10 00:39:13;;;;;;;0.20;0.10;;;;;;;2.39;99.82;99574.41;5002997;28;20462;-51
2020/12/10 00:41:39;;;;;;;0.20;0.10;;;;;;;2.38;100.00;99570.94;5010747;28;20451;-51
2020/12/10 00:44:05;;;;;;;0.20;0.10;;;;;;;2.43;99.22;99573.50;5004381;28;20457;-51
2020/12/10 00:46:31;;;;;;;0.20;0.10;;;;;;;2.31;100.00;99570.97;5010265;28;20890;-50
2020/12/10 00:48:58;;;;;;;0.20;0.10;;;;;;;2.31;100.00;99568.34;5014226;28;20872;-51
2020/12/10 00:51:24;;;;;;;0.20;0.10;;;;;;;2.32;100.00;99572.72;5014136;28;20527;-51
2020/12/10 00:53:50;;;;;;;0.20;0.10;;;;;;;2.29;100.00;99572.72;5004276;28;20499;-51
2020/12/10 00:56:17;;;;;;;0.20;0.10;;;;;;;2.23;99.98;99576.28;5010124;28;20455;-51
2020/12/10 00:58:46;;;;;;;0.50;0.50;;;;;;;2.30;99.65;99567.47;5014070;28;20456;-50
2020/12/10 01:01:13;;;;;;;0.20;0.10;;;;;;;2.28;99.75;99571.00;5014450;28;20468;-50
2020/12/10 01:03:39;;;;;;;0.20;0.10;;;;;;;2.35;99.69;99572.72;5014161;28;20526;-51
2020/12/10 01:06:11;;;;;;;0.20;0.10;;;;;;;2.28;98.97;99573.63;5013811;28;20468;-51
2020/12/10 01:08:38;;;;;;;0.20;0.10;;;;;;;2.24;98.37;99570.16;5009604;28;20445;-51
2020/12/10 01:11:04;;;;;;;0.20;0.10;;;;;;;2.23;98.43;99573.66;5000406;28;20510;-51
2020/12/10 01:13:30;;;;;;;0.20;0.10;;;;;;;2.27;98.20;99569.25;5013567;28;20456;-51
2020/12/10 01:15:56;;;;;;;0.20;0.10;;;;;;;2.28;99.34;99558.75;5013227;28;20555;-50
2020/12/10 01:18:23;;;;;;;0.20;0.10;;;;;;;2.32;100.00;99562.22;5012442;28;20485;-50
2020/12/10 01:20:49;;;;;;;0.20;0.20;;;;;;;2.58;98.13;99562.03;5013600;28;20452;-51
2020/12/10 01:23:15;;;;;;;0.20;0.10;;;;;;;2.54;98.14;99562.94;5013941;28;20455;-51
2020/12/10 01:25:41;;;;;;;0.20;0.10;;;;;;;2.42;98.96;99565.66;5013433;28;20522;-51
2020/12/10 01:28:07;;;;;;;0.30;0.10;;;;;;;2.34;99.14;99563.97;5013306;28;20511;-51
2020/12/10 01:30:33;;;;;;;0.20;0.10;;;;;;;2.40;99.40;99549.06;5013625;28;20506;-51
2020/12/10 01:33:01;;;;;;;0.20;0.10;;;;;;;2.36;99.28;99543.84;5013726;28;20492;-51
2020/12/10 01:35:27;;;;;;;0.20;0.10;;;;;;;2.32;99.78;99541.25;5013365;28;20468;-50
2020/12/10 01:37:53;;;;;;;0.20;0.10;;;;;;;2.71;98.45;99545.28;5000520;28;20457;-51
2020/12/10 01:40:20;;;;;;;0.20;0.10;;;;;;;2.53;97.36;99551.59;4999951;28;20456;-51
2020/12/10 01:42:46;;;;;;;0.20;0.10;;;;;;;2.41;98.04;99554.28;5012918;28;20459;-50
2020/12/10 01:45:12;;;;;;;0.20;0.10;;;;;;;2.36;98.29;99558.72;4999130;28;20986;-51
2020/12/10 01:47:38;;;;;;;0.20;0.10;;;;;;;2.38;98.72;99546.47;5013350;28;20511;-50
2020/12/10 01:50:05;;;;;;;0.20;0.10;;;;;;;2.33;98.51;99533.41;5012814;28;20460;-50
2020/12/10 01:52:31;;;;;;;0.20;0.10;;;;;;;2.40;98.19;99534.19;5012916;28;20489;-50
2020/12/10 01:54:57;;;;;;;0.20;0.10;;;;;;;2.35;99.34;99536.88;5012752;28;20476;-50
2020/12/10 01:57:23;;;;;;;0.77;0.77;;;;;;;2.33;98.84;99536.00;5013082;28;20870;-50
2020/12/10 01:59:50;;;;;;;0.27;0.20;;;;;;;2.33;99.09;99541.25;5012889;28;20456;-50
2020/12/10 02:02:16;;;;;;;0.20;0.10;;;;;;;2.33;98.67;99533.41;5012848;28;20954;-51
2020/12/10 02:04:43;;;;;;;0.20;0.10;;;;;;;2.40;99.24;99523.72;5011500;28;20468;-50
2020/12/10 02:07:10;;;;;;;0.20;0.10;;;;;;;2.34;99.40;99523.78;5012852;28;20453;-51
2020/12/10 02:09:36;;;;;;;0.20;0.10;;;;;;;2.31;99.80;99527.25;4999547;28;20464;-51
2020/12/10 02:12:02;;;;;;;0.20;0.10;;;;;;;2.24;100.00;99532.59;5012665;28;20496;-50
2020/12/10 02:14:37;;;;;;;0.20;0.10;;;;;;;2.22;100.00;99524.72;5012547;28;20468;-50
2020/12/10 02:17:06;;;;;;;0.20;0.10;;;;;;;2.25;100.00;99529.06;5012571;28;20804;-50
2020/12/10 02:19:33;;;;;;;0.20;0.10;;;;;;;2.15;100.00;99533.50;5011328;28;20456;-51
2020/12/10 02:22:00;;;;;;;0.20;0.10;;;;;;;2.15;100.00;99530.00;5012462;28;20448;-50
2020/12/10 02:24:27;;;;;;;0.20;0.10;;;;;;;2.05;100.00;99524.81;5012224;28;20469;-50
2020/12/10 02:26:53;;;;;;;0.20;0.10;;;;;;;2.07;100.00;99524.84;5012809;28;20980;-51
2020/12/10 02:29:19;;;;;;;0.20;0.10;;;;;;;1.93;100.00;99524.94;4993051;28;20485;-51
2020/12/10 02:31:47;;;;;;;0.30;0.20;;;;;;;1.97;100.00;99518.78;5005881;28;20547;-50
2020/12/10 02:34:14;;;;;;;0.20;0.10;;;;;;;2.16;100.00;99523.88;4992688;28;20473;-51
2020/12/10 02:36:42;;;;;;;0.20;0.10;;;;;;;2.21;100.00;99506.41;5005719;28;20899;-50
2020/12/10 02:39:09;;;;;;;0.20;0.10;;;;;;;2.36;100.00;99506.28;5002324;28;20851;-50
2020/12/10 02:41:35;;;;;;;0.20;0.10;;;;;;;2.31;100.00;99503.66;5006802;28;20502;-51
2020/12/10 02:44:02;;;;;;;0.20;0.10;;;;;;;2.36;100.00;99493.16;5004677;28;20477;-51
2020/12/10 02:46:28;;;;;;;0.20;0.10;;;;;;;2.27;100.00;99490.59;5006643;28;20484;-50
2020/12/10 02:48:55;;;;;;;0.20;0.10;;;;;;;2.34;100.00;99487.06;5012028;28;20461;-51
2020/12/10 02:51:21;;;;;;;0.20;0.10;;;;;;;2.22;100.00;99488.03;5011956;28;21001;-51
2020/12/10 02:53:48;;;;;;;0.20;0.20;;;;;;;2.19;100.00;99479.28;5012032;28;20452;-51
2020/12/10 02:56:15;;;;;;;0.20;0.10;;;;;;;2.16;100.00;99487.19;5012366;28;20449;-51
2020/12/10 02:58:42;;;;;;;0.20;0.10;;;;;;;2.05;100.00;99485.50;5015479;28;20452;-50
2020/12/10 03:01:09;;;;;;;0.20;0.13;;;;;;;2.23;100.00;99474.03;5016013;28;20507;-50
2020/12/10 03:03:36;;;;;;;0.20;0.10;;;;;;;2.13;100.00;99474.97;5016211;28;20573;-49
2020/12/10 03:06:07;;;;;;;0.20;0.10;;;;;;;2.02;100.00;99475.06;5015823;28;20477;-50
2020/12/10 03:08:34;;;;;;;0.20;0.10;;;;;;;2.15;100.00;99472.34;5007214;28;20453;-50
2020/12/10 03:11:00;;;;;;;0.20;0.10;;;;;;;2.07;100.00;99461.94;5011517;28;20535;-50
2020/12/10 03:13:27;;;;;;;0.20;0.10;;;;;;;1.92;100.00;99467.28;5015876;28;20459;-50
2020/12/10 03:15:54;;;;;;;0.20;0.10;;;;;;;1.87;100.00;99461.19;5015965;28;20483;-50
2020/12/10 03:18:20;;;;;;;0.20;0.10;;;;;;;1.88;100.00;99468.19;5015805;28;20510;-50
2020/12/10 03:20:46;;;;;;;0.30;0.10;;;;;;;1.89;100.00;99460.31;5014403;28;20448;-49
2020/12/10 03:23:13;;;;;;;0.20;0.10;;;;;;;1.94;100.00;99455.94;5015962;28;20455;-51
2020/12/10 03:25:39;;;;;;;0.20;0.10;;;;;;;1.69;100.00;99460.47;5015749;28;20483;-50
2020/12/10 03:28:05;;;;;;;0.20;0.10;;;;;;;1.54;100.00;99455.31;5015651;28;20448;-50
2020/12/10 03:30:31;;;;;;;0.20;0.10;;;;;;;1.77;100.00;99442.03;5015640;28;20452;-50
2020/12/10 03:32:58;;;;;;;0.20;0.10;;;;;;;1.64;100.00;99443.00;5015320;28;20489;-50
2020/12/10 03:35:24;;;;;;;0.20;0.10;;;;;;;1.65;100.00;99436.91;5015314;28;20471;-50
2020/12/10 03:37:50;;;;;;;0.20;0.10;;;;;;;1.50;100.00;99432.63;5012032;28;20452;-50
2020/12/10 03:40:17;;;;;;;0.20;0.10;;;;;;;1.31;100.00;99446.69;5001963;28;20456;-50
2020/12/10 03:42:43;;;;;;;0.20;0.10;;;;;;;1.38;100.00;99436.22;5015136;28;20456;-50
2020/12/10 03:45:09;;;;;;;0.20;0.10;;;;;;;1.39;100.00;99432.72;5001815;28;20468;-49
2020/12/10 03:47:35;;;;;;;0.20;0.10;;;;;;;1.49;100.00;99428.25;5015401;28;20448;-50
2020/12/10 03:50:05;;;;;;;0.20;0.20;;;;;;;1.47;100.00;99409.94;5015175;28;20459;-50
2020/12/10 03:52:31;;;;;;;0.20;0.10;;;;;;;1.36;100.00;99421.34;5015211;28;20566;-50
2020/12/10 03:54:58;;;;;;;0.20;0.10;;;;;;;1.42;100.00;99419.59;5015197;28;20543;-49
2020/12/10 03:57:24;;;;;;;0.20;0.10;;;;;;;1.48;100.00;99424.78;5015202;28;20510;-50
2020/12/10 03:59:51;;;;;;;0.20;0.10;;;;;;;1.47;100.00;99425.66;5014935;28;20448;-50
2020/12/10 04:02:17;;;;;;;0.20;0.10;;;;;;;1.55;100.00;99414.28;5014929;28;20448;-50
2020/12/10 04:04:43;;;;;;;0.20;0.10;;;;;;;1.61;100.00;99417.72;5014976;28;20469;-50
2020/12/10 04:07:09;;;;;;;0.20;0.10;;;;;;;1.69;100.00;99408.06;5014710;28;20461;-50
2020/12/10 04:09:36;;;;;;;0.20;0.10;;;;;;;1.70;100.00;99407.19;5001169;28;20518;-50
2020/12/10 04:12:03;;;;;;;0.20;0.10;;;;;;;1.66;100.00;99397.63;5013704;28;20488;-50
2020/12/10 04:14:29;;;;;;;0.20;0.10;;;;;;;1.75;100.00;99405.38;5014878;28;20480;-50
2020/12/10 04:16:56;;;;;;;0.20;0.10;;;;;;;1.84;100.00;99401.84;5013107;28;20448;-50
2020/12/10 04:19:22;;;;;;;0.20;0.10;;;;;;;1.91;100.00;99406.13;5014549;28;20453;-50
2020/12/10 04:21:48;;;;;;;0.20;0.20;;;;;;;1.99;100.00;99396.47;5014793;28;20506;-50
2020/12/10 04:24:14;;;;;;;0.20;0.10;;;;;;;1.91;100.00;99403.50;5014285;28;20846;-50
2020/12/10 04:26:40;;;;;;;0.20;0.10;;;;;;;2.02;100.00;99398.19;5014422;28;20903;-50
2020/12/10 04:29:06;;;;;;;0.20;0.10;;;;;;;2.11;100.00;99392.00;5014201;28;20452;-50
2020/12/10 04:31:35;;;;;;;0.20;0.10;;;;;;;2.06;100.00;99389.44;5014348;28;21006;-48
2020/12/10 04:34:02;;;;;;;0.20;0.10;;;;;;;1.95;100.00;99389.53;5014649;28;20453;-48
2020/12/10 04:36:28;;;;;;;0.20;0.10;;;;;;;1.94;100.00;99397.41;5014845;28;20449;-48
2020/12/10 04:38:54;;;;;;;0.20;0.10;;;;;;;1.88;100.00;99395.69;5005556;28;20454;-48
2020/12/10 04:41:20;;;;;;;0.20;0.20;;;;;;;1.95;100.00;99400.00;5006958;28;20503;-48
2020/12/10 04:43:46;;;;;;;0.20;0.10;;;;;;;2.02;100.00;99400.81;5008664;28;20464;-49
2020/12/10 04:46:13;;;;;;;0.20;0.10;;;;;;;1.89;100.00;99404.41;5005275;28;20452;-48
2020/12/10 04:48:40;;;;;;;0.20;0.10;;;;;;;1.86;100.00;99397.44;5014131;28;20957;-48
2020/12/10 04:51:08;;;;;;;0.20;0.10;;;;;;;1.93;100.00;99400.91;5014030;28;20456;-48
2020/12/10 04:53:34;;;;;;;0.20;0.10;;;;;;;1.72;100.00;99389.72;5014142;28;20535;-49
2020/12/10 04:56:06;;;;;;;0.20;0.10;;;;;;;1.71;100.00;99395.81;5013761;28;20472;-48
2020/12/10 04:58:33;;;;;;;0.20;0.20;;;;;;;1.81;100.00;99385.28;4994458;28;20449;-48
2020/12/10 05:01:02;;;;;;;0.20;0.10;;;;;;;1.82;100.00;99387.88;5007925;28;20515;-49
2020/12/10 05:03:30;;;;;;;0.20;0.10;;;;;;;1.87;100.00;99390.47;4994826;28;20456;-48
2020/12/10 05:06:10;;;;;;;0.20;0.20;;;;;;;1.89;100.00;99397.41;5007965;28;20472;-48
2020/12/10 05:08:36;;;;;;;0.20;0.10;;;;;;;1.86;100.00;99394.84;5005030;28;20465;-48
2020/12/10 05:11:06;;;;;;;0.20;0.10;;;;;;;1.90;100.00;99391.28;5010125;28;20579;-49
2020/12/10 05:13:32;;;;;;;0.50;0.50;;;;;;;1.57;100.00;99386.34;5014148;28;20492;-48
2020/12/10 05:15:58;;;;;;;0.20;0.10;;;;;;;1.62;100.00;99385.41;5013739;28;20480;-48
2020/12/10 05:18:25;;;;;;;0.20;0.10;;;;;;;1.71;100.00;99393.22;5013905;28;21031;-48
2020/12/10 05:20:57;;;;;;;0.20;0.10;;;;;;;1.84;100.00;99383.50;5013069;28;20460;-48
2020/12/10 05:23:40;;;;;;;0.20;0.10;;;;;;;1.90;100.00;99372.97;5013771;28;20441;-49
2020/12/10 05:26:09;;;;;;;0.20;0.10;;;;;;;1.83;100.00;99383.53;5013594;28;20469;-48
2020/12/10 05:28:48;;;;;;;0.20;0.10;;;;;;;1.69;100.00;99381.00;5013709;28;20444;-48
2020/12/10 05:31:20;;;;;;;0.20;0.10;;;;;;;1.82;100.00;99377.41;5013504;28;20981;-48
2020/12/10 05:33:52;;;;;;;0.20;0.10;;;;;;;1.93;100.00;99372.97;5013614;28;20821;-49
2020/12/10 05:36:19;;;;;;;0.30;0.30;;;;;;;1.99;100.00;99380.75;5013407;28;20452;-49
2020/12/10 05:39:04;;;;;;;0.20;0.10;;;;;;;1.96;100.00;99374.69;5034171;23;20512;-51
2020/12/10 05:41:35;;;;;;;0.20;0.10;;;;;;;1.95;100.00;99371.19;5033392;28;20451;-51
2020/12/10 05:44:23;;;;;;;0.20;0.10;;;;;;;2.21;100.00;99359.59;5032204;28;20455;-51
2020/12/10 05:47:03;;;;;;;0.20;0.10;;;;;;;2.05;100.00;99359.72;5033324;28;20509;-51
2020/12/10 05:49:30;;;;;;;0.20;0.10;;;;;;;2.02;100.00;99365.00;5013947;28;20452;-51
2020/12/10 05:52:04;;;;;;;0.20;0.10;;;;;;;2.00;100.00;99365.91;5013330;28;20484;-51
2020/12/10 05:54:34;;;;;;;0.20;0.10;;;;;;;2.00;100.00;99361.53;5013424;28;20448;-51
2020/12/10 05:57:04;;;;;;;0.20;0.10;;;;;;;1.92;100.00;99368.59;5013417;28;20452;-51
2020/12/10 05:59:31;;;;;;;0.20;0.10;;;;;;;1.73;100.00;99380.97;5013190;28;20453;-51
2020/12/10 06:02:01;;;;;;;0.20;0.10;;;;;;;1.76;100.00;99377.44;5013461;28;20453;-51
2020/12/10 06:04:27;;;;;;;0.20;0.10;;;;;;;1.67;100.00;99381.03;5013279;28;20488;-51
2020/12/10 06:06:57;;;;;;;0.20;0.10;;;;;;;1.71;100.00;99368.75;5013253;28;20500;-51
2020/12/10 06:09:25;;;;;;;0.30;0.20;;;;;;;1.87;100.00;99379.97;5012590;28;20476;-51
2020/12/10 06:12:02;;;;;;;0.20;0.10;;;;;;;2.00;100.00;99382.47;5012909;28;20496;-51
2020/12/10 06:14:28;;;;;;;0.20;0.10;;;;;;;2.11;100.00;99392.00;5012861;28;20511;-51
2020/12/10 06:17:15;;;;;;;0.30;0.20;;;;;;;2.03;100.00;99392.94;5013018;28;20456;-51
2020/12/10 06:19:41;;;;;;;0.20;0.10;;;;;;;2.13;100.00;99391.09;5000557;28;20473;-51
2020/12/10 06:22:31;;;;;;;0.20;0.10;;;;;;;2.30;100.00;99386.56;5013415;28;20479;-51
2020/12/10 06:24:59;;;;;;;0.20;0.10;;;;;;;2.21;100.00;99389.28;5013020;28;20510;-51
2020/12/10 06:27:30;;;;;;;0.20;0.10;;;;;;;2.22;100.00;99390.16;5013388;28;20496;-51
2020/12/10 06:30:13;;;;;;;0.20;0.10;;;;;;;2.16;100.00;99390.22;5013200;28;20994;-51
2020/12/10 06:32:42;;;;;;;0.20;0.10;;;;;;;2.12;100.00;99393.75;5012803;28;20492;-51
2020/12/10 06:35:25;;;;;;;0.20;0.10;;;;;;;2.12;100.00;99393.75;5013893;28;20448;-51
2020/12/10 06:37:51;;;;;;;0.20;0.10;;;;;;;2.10;100.00;99395.53;5012583;28;20476;-51
2020/12/10 06:40:35;;;;;;;0.20;0.20;;;;;;;2.02;100.00;99396.44;5012693;28;20456;-51
2020/12/10 06:43:04;;;;;;;0.20;0.10;;;;;;;2.06;100.00;99398.19;5012581;28;20941;-51
2020/12/10 06:45:34;;;;;;;0.20;0.10;;;;;;;2.11;100.00;99394.63;5013043;28;20452;-51
2020/12/10 06:48:02;;;;;;;0.20;0.10;;;;;;;2.06;100.00;99400.78;5012580;28;20542;-51
2020/12/10 06:50:31;;;;;;;0.20;0.10;;;;;;;2.06;100.00;99397.31;5012610;28;20510;-51
2020/12/10 06:53:07;;;;;;;0.20;0.10;;;;;;;2.09;100.00;99392.03;5012663;28;20480;-51
2020/12/10 06:55:34;;;;;;;0.20;0.10;;;;;;;2.21;100.00;99389.28;5013425;28;20448;-52
2020/12/10 06:58:14;;;;;;;0.20;0.10;;;;;;;2.22;100.00;99395.41;5013340;28;20472;-51
2020/12/10 07:00:50;;;;;;;0.20;0.10;;;;;;;2.18;100.00;99398.91;5012841;28;20498;-51
2020/12/10 07:03:29;;;;;;;0.20;0.10;;;;;;;2.14;100.00;99399.84;5012515;28;20451;-51
2020/12/10 07:05:55;;;;;;;0.20;0.10;;;;;;;2.05;100.00;99401.66;5012903;28;20449;-51
2020/12/10 07:08:22;;;;;;;0.20;0.10;;;;;;;2.30;100.00;99402.28;5012655;28;20563;-51
2020/12/10 07:10:50;;;;;;;0.30;0.10;;;;;;;2.20;100.00;99405.03;5012660;28;20452;-51
2020/12/10 07:13:29;;;;;;;0.20;0.10;;;;;;;2.10;100.00;99390.28;5012875;28;20499;-51
2020/12/10 07:15:55;;;;;;;0.20;0.10;;;;;;;1.98;100.00;99404.34;5012232;28;20444;-51
2020/12/10 07:18:21;;;;;;;0.30;0.10;;;;;;;1.95;100.00;99412.25;5014365;28;21048;-50
2020/12/10 07:20:47;;;;;;;0.20;0.10;;;;;;;1.96;100.00;99414.84;5012402;28;20475;-50
2020/12/10 07:23:13;;;;;;;0.20;0.10;;;;;;;1.99;100.00;99412.19;5012385;28;20452;-50
2020/12/10 07:25:40;;;;;;;0.20;0.10;;;;;;;1.98;100.00;99418.31;5012120;28;20966;-50
2020/12/10 07:28:06;;;;;;;0.20;0.10;;;;;;;2.11;100.00;99423.47;5012298;28;20468;-50
2020/12/10 07:30:32;;;;;;;0.20;0.10;;;;;;;2.13;100.00;99419.06;5012955;28;20942;-50
2020/12/10 07:33:00;;;;;;;0.20;0.10;;;;;;;2.26;100.00;99424.19;5012278;28;20931;-50
2020/12/10 07:35:28;;;;;;;0.20;0.10;;;;;;;2.09;100.00;99423.47;5012011;28;20515;-50
2020/12/10 07:37:55;;;;;;;0.20;0.10;;;;;;;1.99;100.00;99412.19;5011889;28;20507;-50
2020/12/10 07:40:22;;;;;;;0.20;0.10;;;;;;;2.15;100.00;99415.56;5012079;28;20483;-50
2020/12/10 07:42:48;;;;;;;0.20;0.10;;;;;;;2.26;100.00;99415.47;5011993;28;20453;-51
2020/12/10 07:45:19;;;;;;;0.20;0.10;;;;;;;2.16;100.00;99408.56;5015419;28;20475;-50
2020/12/10 07:47:55;;;;;;;0.20;0.10;;;;;;;2.10;100.00;99411.25;5015724;28;20471;-50
2020/12/10 07:50:24;;;;;;;0.20;0.10;;;;;;;2.14;100.00;99407.69;5015532;28;20503;-50
2020/12/10 07:52:53;;;;;;;0.47;0.47;;;;;;;2.05;100.00;99403.41;5015541;28;20507;-50
2020/12/10 07:55:22;;;;;;;0.20;0.10;;;;;;;2.01;100.00;99415.66;5015396;28;20519;-50
2020/12/10 07:58:10;;;;;;;0.20;0.10;;;;;;;1.98;100.00;99415.69;5015083;28;20495;-50
2020/12/10 08:00:37;;;;;;;0.20;0.10;;;;;;;2.04;100.00;99414.78;5015638;28;20518;-50
2020/12/10 08:03:15;;;;;;;0.20;0.10;;;;;;;2.02;100.00;99417.41;5015385;28;20883;-50
2020/12/10 08:05:43;;;;;;;0.20;0.10;;;;;;;2.00;100.00;99406.06;5015341;28;20479;-50
2020/12/10 08:08:10;;;;;;;0.20;0.10;;;;;;;2.01;100.00;99401.69;5015023;28;20503;-50
2020/12/10 08:10:39;;;;;;;0.20;0.10;;;;;;;2.06;100.00;99410.41;5015154;28;20460;-50
2020/12/10 08:13:14;;;;;;;0.20;0.10;;;;;;;2.06;100.00;99413.03;5015086;28;20495;-50
2020/12/10 08:15:43;;;;;;;0.20;0.10;;;;;;;1.99;100.00;99416.56;5015295;28;20448;-50
2020/12/10 08:18:13;;;;;;;0.30;0.20;;;;;;;2.01;100.00;99410.44;5015196;28;20527;-50
2020/12/10 08:20:45;;;;;;;0.20;0.10;;;;;;;1.98;100.00;99414.84;5014761;28;20960;-50
2020/12/10 08:23:15;;;;;;;0.43;0.43;;;;;;;2.11;100.00;99407.75;5015655;28;20456;-50
2020/12/10 08:25:43;;;;;;;0.20;0.10;;;;;;;1.95;100.00;99404.38;5015451;28;20464;-50
2020/12/10 08:28:11;;;;;;;0.20;0.10;;;;;;;1.99;100.00;99420.06;5014822;28;21051;-50
2020/12/10 08:30:49;;;;;;;0.20;0.10;;;;;;;1.92;100.00;99407.91;5014729;28;20448;-50
2020/12/10 08:33:16;;;;;;;0.20;0.20;;;;;;;2.01;100.00;99399.06;5015132;28;20477;-50
2020/12/10 08:35:43;;;;;;;0.20;0.20;;;;;;;2.17;100.00;99399.81;5014612;28;20672;-50
2020/12/10 08:38:10;;;;;;;0.20;0.10;;;;;;;2.09;100.00;99405.13;5014549;28;20492;-50
2020/12/10 08:40:36;;;;;;;0.20;0.10;;;;;;;2.02;100.00;99404.31;5014647;28;20452;-50
2020/12/10 08:43:14;;;;;;;0.20;0.10;;;;;;;1.94;100.00;99403.53;5014491;28;20452;-50
2020/12/10 08:45:44;;;;;;;0.20;0.20;;;;;;;2.07;100.00;99406.91;5002286;28;20456;-50
2020/12/10 08:48:13;;;;;;;0.30;0.20;;;;;;;2.10;99.20;99400.75;5014598;28;20499;-50
2020/12/10 08:50:55;;;;;;;0.20;0.10;;;;;;;2.13;98.08;99412.06;5014632;28;20455;-50
2020/12/10 08:53:22;;;;;;;0.20;0.10;;;;;;;2.19;97.79;99405.91;5014412;28;20492;-50
2020/12/10 08:55:53;;;;;;;0.20;0.10;;;;;;;2.26;98.03;99407.59;5013187;28;20489;-50
2020/12/10 08:58:22;;;;;;;0.20;0.10;;;;;;;2.19;95.97;99409.38;5014357;28;20468;-50
2020/12/10 09:00:52;;;;;;;0.20;0.10;;;;;;;2.17;96.97;99408.53;5014503;28;20456;-49
2020/12/10 09:03:19;;;;;;;0.20;0.10;;;;;;;2.09;97.59;99413.00;5014768;28;20449;-50
2020/12/10 09:05:45;;;;;;;0.20;0.10;;;;;;;2.20;97.46;99419.03;5014665;28;20453;-50
2020/12/10 09:08:12;;;;;;;0.20;0.10;;;;;;;2.32;96.33;99420.63;5014373;28;20479;-50
2020/12/10 09:10:39;;;;;;;0.20;0.10;;;;;;;2.39;94.87;99424.94;5014898;28;20468;-51
2020/12/10 09:13:05;;;;;;;0.20;0.10;;;;;;;2.36;94.77;99422.38;5015982;28;20515;-50
2020/12/10 09:15:43;;;;;;;0.20;0.10;;;;;;;2.18;94.34;99428.63;5015665;28;20929;-51
2020/12/10 09:18:10;;;;;;;0.20;0.10;;;;;;;2.35;93.99;99425.88;5014625;28;20526;-50
2020/12/10 09:20:37;;;;;;;0.20;0.10;;;;;;;2.20;94.96;99431.25;5014667;28;20822;-50
2020/12/10 09:23:03;;;;;;;0.20;0.10;;;;;;;2.23;95.64;99437.34;5014593;28;20463;-50
2020/12/10 09:25:30;;;;;;;0.20;0.10;;;;;;;2.27;94.74;99431.19;5014594;28;20539;-51
2020/12/10 09:27:56;;;;;;;0.20;0.10;;;;;;;2.07;95.34;99436.59;5015960;28;20479;-50
2020/12/10 09:30:22;;;;;;;0.20;0.10;;;;;;;2.24;94.31;99427.72;5014975;28;20456;-50
2020/12/10 09:32:49;;;;;;;0.20;0.10;;;;;;;2.21;95.45;99433.88;5015223;28;20496;-50
2020/12/10 09:35:16;;;;;;;0.20;0.10;;;;;;;2.13;95.55;99437.41;5014659;28;20498;-50
2020/12/10 09:37:43;;;;;;;0.20;0.10;;;;;;;2.19;94.11;99438.22;5014658;28;20484;-51
2020/12/10 09:40:11;;;;;;;0.20;0.10;;;;;;;2.27;94.70;99432.94;5014493;28;20452;-50
2020/12/10 09:42:42;;;;;;;0.20;0.10;;;;;;;2.32;93.51;99431.13;5015508;28;20482;-50
2020/12/10 09:45:14;;;;;;;0.20;0.10;;;;;;;2.29;93.26;99433.78;5015365;28;20464;-50
2020/12/10 09:47:47;;;;;;;2.80;2.63;;;;;;;2.54;93.62;99434.41;5014004;28;20469;-51
2020/12/10 09:50:21;;;;;;;0.20;0.10;;;;;;;2.42;92.22;99431.91;5014191;28;20856;-50
2020/12/10 09:53:34;;;;;;;0.20;0.10;;;;;;;2.64;91.93;99426.44;5014436;28;20499;-50
2020/12/10 09:56:10;;;;;;;0.20;0.10;;;;;;;2.66;91.19;99416.81;5013655;28;20457;-50
2020/12/10 09:58:31;;;;;;;0.20;0.10;;;;;;;2.57;92.32;99426.50;5014971;28;20499;-50
2020/12/10 10:00:58;;;;;;;0.20;0.10;;;;;;;2.61;91.88;99420.38;5013257;28;20480;-50
2020/12/10 10:03:25;;;;;;;0.20;0.10;;;;;;;2.76;91.77;99424.56;5009823;28;20441;-50
2020/12/10 10:05:55;;;;;;;0.20;0.10;;;;;;;2.80;91.14;99416.66;5013686;28;20474;-50
2020/12/10 10:08:24;;;;;;;0.20;0.10;;;;;;;2.54;91.85;99419.53;5013724;28;20977;-50
2020/12/10 10:10:50;;;;;;;0.20;0.10;;;;;;;2.64;91.75;99423.81;5013918;28;20484;-50
2020/12/10 10:13:16;;;;;;;0.20;0.10;;;;;;;2.53;91.96;99423.06;5014524;28;20558;-50
2020/12/10 10:15:44;;;;;;;0.20;0.10;;;;;;;2.52;91.44;99428.31;5014140;28;20475;-50
2020/12/10 10:18:11;;;;;;;0.20;0.10;;;;;;;2.44;92.04;99422.28;5014014;28;20464;-51
2020/12/10 10:20:38;;;;;;;0.20;0.10;;;;;;;2.46;92.16;99421.38;5013785;28;20453;-50
2020/12/10 10:23:04;;;;;;;0.20;0.10;;;;;;;2.50;91.18;99419.59;5014978;28;20448;-50
2020/12/10 10:25:30;;;;;;;0.20;0.10;;;;;;;2.50;92.23;99419.59;5014227;28;20476;-50
2020/12/10 10:28:01;;;;;;;0.20;0.10;;;;;;;2.44;92.67;99419.66;5016217;28;20527;-51
2020/12/10 10:30:27;;;;;;;0.20;0.10;;;;;;;2.62;91.37;99417.72;5014107;28;20835;-50
2020/12/10 10:32:53;;;;;;;0.20;0.10;;;;;;;2.54;91.63;99419.53;5014913;28;20993;-50
2020/12/10 10:35:20;;;;;;;0.20;0.10;;;;;;;2.55;92.25;99418.66;5013459;28;20456;-50
2020/12/10 10:37:47;;;;;;;0.20;0.10;;;;;;;2.63;91.35;99410.72;5013806;28;20985;-50
2020/12/10 10:40:13;;;;;;;0.20;0.10;;;;;;;2.49;91.40;99402.13;5013547;28;20502;-50
2020/12/10 10:42:39;;;;;;;0.20;0.10;;;;;;;2.51;91.89;99410.84;5014351;28;20849;-50
2020/12/10 10:45:05;;;;;;;0.20;0.10;;;;;;;2.42;91.37;99400.44;5014558;28;20483;-51
2020/12/10 10:47:31;;;;;;;0.20;0.10;;;;;;;2.58;91.46;99412.50;5013905;28;20468;-50
2020/12/10 10:49:58;;;;;;;0.30;0.30;;;;;;;2.57;91.29;99408.16;5012319;28;21009;-50
2020/12/10 10:52:24;;;;;;;0.20;0.10;;;;;;;2.75;89.92;99405.34;5013497;28;20488;-50
2020/12/10 10:54:50;;;;;;;0.20;0.10;;;;;;;2.78;89.64;99404.44;5013005;28;20479;-51
2020/12/10 10:57:16;;;;;;;0.20;0.10;;;;;;;2.75;90.09;99402.72;5013214;28;20467;-50
2020/12/10 10:59:42;;;;;;;0.20;0.10;;;;;;;2.87;89.69;99414.81;5013277;28;20487;-50
2020/12/10 11:02:08;;;;;;;0.20;0.10;;;;;;;2.53;89.66;99412.56;5014385;28;20449;-51
2020/12/10 11:04:35;;;;;;;0.20;0.10;;;;;;;2.51;91.19;99408.22;5014444;28;20467;-51
2020/12/10 11:07:01;;;;;;;0.20;0.10;;;;;;;2.47;92.54;99404.78;5013431;28;20453;-50
2020/12/10 11:09:27;;;;;;;0.20;0.10;;;;;;;2.46;91.78;99403.00;5012877;28;20458;-50
2020/12/10 11:11:53;;;;;;;0.20;0.10;;;;;;;2.50;91.45;99399.50;5013111;28;20456;-50
2020/12/10 11:14:20;;;;;;;0.20;0.10;;;;;;;2.44;91.11;99403.91;5013566;28;20525;-50
2020/12/10 11:16:48;;;;;;;0.20;0.10;;;;;;;2.48;92.78;99398.66;5016472;28;20532;-51
2020/12/10 11:19:14;;;;;;;0.20;0.10;;;;;;;2.43;92.46;99400.44;5017289;28;20472;-50
2020/12/10 11:21:40;;;;;;;0.20;0.10;;;;;;;2.46;91.13;99392.53;5024047;28;20483;-51
2020/12/10 11:24:07;;;;;;;0.30;0.10;;;;;;;2.51;91.20;99388.13;5030343;28;20473;-51
2020/12/10 11:26:33;;;;;;;0.20;0.10;;;;;;;2.52;90.92;99383.75;5038383;28;20449;-51
2020/12/10 11:28:59;;;;;;;0.20;0.10;;;;;;;2.72;90.86;99380.88;5032703;28;21041;-50
2020/12/10 11:31:26;;;;;;;0.20;0.10;;;;;;;2.76;90.90;99370.34;5022195;28;20452;-50
2020/12/10 11:33:53;;;;;;;0.30;0.20;;;;;;;2.97;89.99;99377.06;5016007;28;20492;-50
2020/12/10 11:36:19;;;;;;;0.20;0.10;;;;;;;2.71;91.38;99381.75;5017063;28;20471;-50
2020/12/10 11:38:46;;;;;;;0.20;0.10;;;;;;;2.68;91.59;99375.66;5035186;22;20506;-49
2020/12/10 11:41:12;;;;;;;0.20;0.10;;;;;;;2.78;90.82;99373.81;5014578;28;20801;-49
2020/12/10 11:43:38;;;;;;;0.20;0.10;;;;;;;2.72;91.60;99379.13;5032358;28;20443;-49